Mesa, Idaho
Current Conditions -  °F | °C
As of 5:51 AM on Sunday 23 Nov 2014 (Local Time) from KMYL Reporting Station
Light Snow Light Snow  
Wind Chill: 27°   Ceiling: 4300
Heat Index: 27°   Visibility: 9mi
Dew Point: 23°   Wind: 3mph
Humidity: 85%   Direction: 90°E
Pressure: 30.13"   Gusts: NA
Location:  44.63°N, 116.45°W
Report Text: KMYL 231251Z AUTO 09003KT 9SM -SN BKN043 OVC049 M03/M05 A3013 RMK AO2 SLP231 P0000 T10281050
Loading
Personal Weather Stations






























Interactive Weather Map New forecast layout! Learn more

10-Day Weather Forecast

Advertisements
Track Severe Weather on mobile